Time;durP1;ratioP1;P1;durP2;ratioP2;P2;SDS_P1;SDS_P2;PMS_P1;PMS_P2;Temp;Humidity;BMP_temperature;BMP_pressure;BME280_temperature;BME280_humidity;BME280_pressure;Samples;Min_cycle;Max_cycle;Signal;HPM_P1;HPM_P2
2023/10/20 00:01:48;;;;;;;;;;;;;;;18.47;58.87;98549.88;4928635;28;120277;-64
2023/10/20 00:04:16;;;;;;;;;;;;;;;18.47;59.06;98552.56;4928983;28;119096;-64
2023/10/20 00:06:44;;;;;;;;;;;;;;;18.46;59.00;98548.22;4928494;28;124650;-64
2023/10/20 00:09:14;;;;;;;;;;;;;;;18.47;59.09;98552.56;4942380;28;123707;-64
2023/10/20 00:11:42;;;;;;;;;;;;;;;18.47;59.07;98544.53;4926164;28;119062;-64
2023/10/20 00:14:09;;;;;;;;;;;;;;;18.48;59.09;98542.69;4923466;28;119183;-64
2023/10/20 00:16:36;;;;;;;;;;;;;;;18.48;58.98;98542.69;4928699;28;124657;-63
2023/10/20 00:19:04;;;;;;;;;;;;;;;18.46;59.02;98524.09;4926939;28;124047;-63
2023/10/20 00:21:31;;;;;;;;;;;;;;;18.46;59.08;98524.09;4929208;28;119098;-64
2023/10/20 00:23:58;;;;;;;;;;;;;;;18.45;59.06;98516.25;4925136;28;121969;-63
2023/10/20 00:26:26;;;;;;;;;;;;;;;18.46;59.15;98518.75;4923767;28;122757;-64
2023/10/20 00:28:53;;;;;;;;;;;;;;;18.44;59.00;98515.41;4929263;28;123447;-64
2023/10/20 00:31:20;;;;;;;;;;;;;;;18.43;59.10;98513.72;4929513;28;119582;-63
2023/10/20 00:33:50;;;;;;;;;;;;;;;18.42;59.02;98504.03;4948659;28;118458;-63
2023/10/20 00:36:17;;;;;;;;;;;;;;;18.42;58.98;98505.84;4921953;28;124483;-63
2023/10/20 00:38:44;;;;;;;;;;;;;;;18.39;58.95;98499.03;4940103;28;123735;-63
2023/10/20 00:41:13;;;;;;;;;;;;;;;18.38;58.99;98500.00;4928203;28;119571;-63
2023/10/20 00:43:41;;;;;;;;;;;;;;;18.36;58.95;98485.97;4928510;28;119917;-63
2023/10/20 00:46:08;;;;;;;;;;;;;;;18.34;58.97;98477.25;4930235;28;123321;-63
2023/10/20 00:48:36;;;;;;;;;;;;;;;18.33;58.96;98467.56;4929246;28;122868;-63
2023/10/20 00:51:07;;;;;;;;;;;;;;;18.31;58.98;98461.56;4927928;28;119980;-63
2023/10/20 00:53:35;;;;;;;;;;;;;;;18.29;59.09;98455.56;4921703;28;117536;-63
2023/10/20 00:56:03;;;;;;;;;;;;;;;18.26;59.16;98455.91;4922270;28;124481;-64
2023/10/20 00:58:31;;;;;;;;;;;;;;;18.22;59.11;98451.91;4927220;28;124260;-63
2023/10/20 01:00:58;;;;;;;;;;;;;;;18.20;59.10;98443.22;4927384;28;118747;-63
2023/10/20 01:03:25;;;;;;;;;;;;;;;18.18;59.23;98445.25;4930221;28;118792;-63
2023/10/20 01:05:53;;;;;;;;;;;;;;;18.16;59.23;98442.72;4928402;28;124027;-63
2023/10/20 01:08:20;;;;;;;;;;;;;;;18.15;59.10;98440.22;4929700;28;123235;-63
2023/10/20 01:10:47;;;;;;;;;;;;;;;18.13;59.25;98434.22;4928002;28;118667;-63
2023/10/20 01:13:14;;;;;;;;;;;;;;;18.11;59.14;98417.47;4925232;28;119133;-63
2023/10/20 01:15:42;;;;;;;;;;;;;;;18.07;59.26;98415.16;4937886;28;124427;-63
2023/10/20 01:18:10;;;;;;;;;;;;;;;18.06;59.27;98416.19;4942938;28;122759;-63
2023/10/20 01:20:38;;;;;;;;;;;;;;;18.02;59.26;98409.47;4932400;28;119494;-62
2023/10/20 01:23:06;;;;;;;;;;;;;;;18.00;59.38;98400.78;4939018;28;118009;-62
2023/10/20 01:25:33;;;;;;;;;;;;;;;17.98;59.45;98408.16;4925071;28;124165;-63
2023/10/20 01:28:00;;;;;;;;;;;;;;;17.95;59.47;98408.53;4922772;28;124990;-63
2023/10/20 01:30:28;;;;;;;;;;;;;;;17.93;59.48;98399.00;4941190;28;119590;-63
2023/10/20 01:32:56;;;;;;;;;;;;;;;17.91;59.56;98388.47;4925834;28;120115;-63
2023/10/20 01:35:23;;;;;;;;;;;;;;;17.90;59.50;98378.78;4927324;28;124524;-63
2023/10/20 01:37:50;;;;;;;;;;;;;;;17.89;59.50;98377.09;4927516;28;123512;-63
2023/10/20 01:40:19;;;;;;;;;;;;;;;17.86;59.62;98372.09;4928667;28;120035;-63
2023/10/20 01:42:47;;;;;;;;;;;;;;;17.84;59.77;98366.06;4934060;28;118364;-63
2023/10/20 01:45:14;;;;;;;;;;;;;;;17.82;59.73;98360.03;4928707;28;124533;-63
2023/10/20 01:47:41;;;;;;;;;;;;;;;17.80;59.94;98362.06;4929466;28;124343;-63
2023/10/20 01:50:08;;;;;;;;;;;;;;;17.81;59.80;98363.72;4928637;28;119728;-63
2023/10/20 01:52:35;;;;;;;;;;;;;;;17.81;59.71;98366.41;4926594;28;119223;-63
2023/10/20 01:55:02;;;;;;;;;;;;;;;17.81;59.90;98369.09;4924500;28;123820;-63
2023/10/20 01:57:29;;;;;;;;;;;;;;;17.83;59.89;98362.53;4923021;28;124943;-63
2023/10/20 01:59:57;;;;;;;;;;;;;;;17.83;59.86;98351.00;4935915;28;118983;-63
2023/10/20 02:02:24;;;;;;;;;;;;;;;17.81;59.99;98347.66;4930320;28;117851;-63
2023/10/20 02:04:51;;;;;;;;;;;;;;;17.80;59.95;98351.34;4938247;28;124163;-63
2023/10/20 02:07:18;;;;;;;;;;;;;;;17.79;59.82;98338.97;4912534;28;123561;-63
2023/10/20 02:09:45;;;;;;;;;;;;;;;17.78;59.99;98332.81;4928408;28;118545;-63
2023/10/20 02:12:13;;;;;;;;;;;;;;;17.77;59.92;98328.44;4922229;28;118929;-63
2023/10/20 02:14:41;;;;;;;;;;;;;;;17.76;59.98;98324.09;4933209;28;123995;-64
2023/10/20 02:17:08;;;;;;;;;;;;;;;17.76;59.96;98317.91;4928361;28;124355;-63
2023/10/20 02:19:35;;;;;;;;;;;;;;;17.74;59.99;98304.69;4921311;28;119490;-63
2023/10/20 02:22:02;;;;;;;;;;;;;;;17.74;60.04;98298.50;4925846;28;119093;-63
2023/10/20 02:24:30;;;;;;;;;;;;;;;17.71;60.06;98300.53;4938899;28;123002;-63
2023/10/20 02:26:58;;;;;;;;;;;;;;;17.70;59.96;98293.50;4924191;28;125032;-63
2023/10/20 02:29:25;;;;;;;;;;;;;;;17.69;60.20;98297.22;4920780;28;120170;-63
2023/10/20 02:31:52;;;;;;;;;;;;;;;17.69;60.17;98297.22;4926957;28;118977;-63
2023/10/20 02:34:21;;;;;;;;;;;;;;;17.70;60.17;98293.50;4926789;28;123559;-64
2023/10/20 02:36:48;;;;;;;;;;;;;;;17.71;60.30;98284.47;4926776;28;123839;-63
2023/10/20 02:39:15;;;;;;;;;;;;;;;17.70;60.22;98277.44;4927922;28;120327;-63
2023/10/20 02:41:42;;;;;;;;;;;;;;;17.70;60.40;98264.06;4926294;28;117915;-64
2023/10/20 02:44:10;;;;;;;;;;;;;;;17.71;60.39;98263.06;4929461;28;124193;-64
2023/10/20 02:46:38;;;;;;;;;;;;;;;17.71;60.36;98257.69;4930997;28;123311;-63
2023/10/20 02:49:06;;;;;;;;;;;;;;;17.71;60.36;98241.63;4928779;28;119488;-64
2023/10/20 02:51:33;;;;;;;;;;;;;;;17.72;60.30;98242.47;4928051;28;118978;-63
2023/10/20 02:54:00;;;;;;;;;;;;;;;17.71;60.18;98243.50;4922974;28;124493;-63
2023/10/20 02:56:28;;;;;;;;;;;;;;;17.71;60.39;98238.97;4927754;28;124052;-64
2023/10/20 02:58:55;;;;;;;;;;;;;;;17.71;60.20;98225.56;4929864;28;118365;-64
2023/10/20 03:01:23;;;;;;;;;;;;;;;17.71;60.40;98220.22;4929503;28;117750;-64
2023/10/20 03:03:51;;;;;;;;;;;;;;;17.71;60.36;98203.34;4931543;28;124316;-63
2023/10/20 03:06:19;;;;;;;;;;;;;;;17.70;60.23;98191.78;4930448;28;124515;-63
2023/10/20 03:08:46;;;;;;;;;;;;;;;17.67;60.44;98192.16;4931742;28;119885;-64
2023/10/20 03:11:13;;;;;;;;;;;;;;;17.67;60.60;98202.88;4929297;28;118804;-63
2023/10/20 03:13:40;;;;;;;;;;;;;;;17.65;60.64;98194.19;4933779;28;123299;-63
2023/10/20 03:16:07;;;;;;;;;;;;;;;17.63;60.50;98182.81;4948710;28;123792;-63
2023/10/20 03:18:34;;;;;;;;;;;;;;;17.64;60.76;98181.78;4928991;28;119665;-64
2023/10/20 03:21:02;;;;;;;;;;;;;;;17.63;60.67;98172.13;4924468;28;118455;-63
2023/10/20 03:23:29;;;;;;;;;;;;;;;17.64;60.83;98168.41;4929272;28;123209;-64
2023/10/20 03:25:57;;;;;;;;;;;;;;;17.64;61.00;98165.75;4926074;28;124841;-63
2023/10/20 03:28:25;;;;;;;;;;;;;;;17.64;60.90;98170.25;4928734;28;119362;-63
2023/10/20 03:30:53;;;;;;;;;;;;;;;17.65;61.07;98178.13;4932309;28;119196;-63
2023/10/20 03:33:21;;;;;;;;;;;;;;;17.65;61.07;98172.78;4933154;28;124990;-63
2023/10/20 03:35:58;;;;;;;;;;;;;;;17.65;60.83;98163.88;4926841;28;124398;-63
2023/10/20 03:38:25;;;;;;;;;;;;;;;17.66;60.96;98169.06;4921673;28;119680;-63
2023/10/20 03:40:53;;;;;;;;;;;;;;;17.67;60.93;98165.38;4919201;28;118963;-63
2023/10/20 03:43:23;;;;;;;;;;;;;;;17.68;60.74;98160.84;4930238;28;124633;-63
2023/10/20 03:45:56;;;;;;;;;;;;;;;17.69;60.75;98147.28;4947209;28;123135;-63
2023/10/20 03:48:23;;;;;;;;;;;;;;;17.69;60.92;98147.28;4930399;28;119208;-63
2023/10/20 03:50:52;;;;;;;;;;;;;;;17.69;60.75;98141.94;4930779;28;118255;-63
2023/10/20 03:53:26;;;;;;;;;;;;;;;17.71;60.90;98134.56;4924356;28;124526;-63
2023/10/20 03:55:58;;;;;;;;;;;;;;;17.71;60.83;98145.28;4928683;28;122956;-63
2023/10/20 03:58:29;;;;;;;;;;;;;;;17.71;60.89;98150.63;4929416;28;121006;-63
2023/10/20 04:01:03;;;;;;;;;;;;;;;17.71;60.89;98136.41;4929420;28;120419;-63
2023/10/20 04:03:30;;;;;;;;;;;;;;;17.71;60.85;98120.34;4929277;28;123077;-63
2023/10/20 04:05:58;;;;;;;;;;;;;;;17.70;61.03;98111.47;4928312;28;123334;-63
2023/10/20 04:08:25;;;;;;;;;;;;;;;17.68;60.98;98116.16;4946356;28;119417;-63
2023/10/20 04:10:56;;;;;;;;;;;;;;;17.68;60.89;98113.50;4929470;28;118723;-63
2023/10/20 04:13:23;;;;;;;;;;;;;;;17.69;61.14;98120.53;4925568;28;124532;-63
2023/10/20 04:15:52;;;;;;;;;;;;;;;17.69;60.89;98123.19;4929511;28;123682;-63
2023/10/20 04:18:20;;;;;;;;;;;;;;;17.70;60.98;98111.47;4929830;28;119098;-63
2023/10/20 04:20:48;;;;;;;;;;;;;;;17.70;61.07;98105.28;4928658;28;119264;-63
2023/10/20 04:23:16;;;;;;;;;;;;;;;17.70;60.98;98089.22;4928863;28;124906;-63
2023/10/20 04:25:53;;;;;;;;;;;;;;;17.70;61.20;98090.06;4925140;28;124332;-63
2023/10/20 04:28:28;;;;;;;;;;;;;;;17.70;61.05;98095.41;4930445;28;119795;-64
2023/10/20 04:59:04;;;;;;;;;;;;;;;17.66;61.64;98008.47;4927909;28;123907;-63
2023/10/20 05:01:04;;;;;;;;;;;;;;;17.67;61.54;97994.06;4922767;28;119105;-63
2023/10/20 05:03:45;;;;;;;;;;;;;;;17.68;61.55;97979.66;4921889;28;118492;-63
2023/10/20 05:06:26;;;;;;;;;;;;;;;17.68;61.72;97974.31;4925600;28;125492;-63
2023/10/20 05:08:53;;;;;;;;;;;;;;;17.68;61.88;97979.66;4928788;28;124280;-62
2023/10/20 05:11:22;;;;;;;;;;;;;;;17.69;61.89;97975.97;4928930;28;119642;-63
2023/10/20 05:13:49;;;;;;;;;;;;;;;17.69;61.93;97973.31;4927708;28;118976;-63
2023/10/20 05:16:16;;;;;;;;;;;;;;;17.70;62.14;97960.75;4925340;28;124179;-63
2023/10/20 05:18:44;;;;;;;;;;;;;;;17.70;61.91;97958.88;4929025;28;124486;-62
2023/10/20 05:21:12;;;;;;;;;;;;;;;17.71;62.11;97963.25;4936551;28;119382;-63
2023/10/20 05:23:40;;;;;;;;;;;;;;;17.73;62.08;97954.22;4911276;28;117539;-63
2023/10/20 05:26:08;;;;;;;;;;;;;;;17.74;61.97;97961.22;4939281;28;123212;-63
2023/10/20 05:28:36;;;;;;;;;;;;;;;17.75;62.06;97952.16;4928210;28;124307;-63
2023/10/20 05:31:03;;;;;;;;;;;;;;;17.76;61.97;97943.09;4925981;28;119430;-63
2023/10/20 05:33:30;;;;;;;;;;;;;;;17.77;62.02;97944.78;4920325;28;118783;-63
2023/10/20 05:36:01;;;;;;;;;;;;;;;17.77;61.86;97940.25;4930280;28;125548;-63
2023/10/20 05:38:29;;;;;;;;;;;;;;;17.78;62.03;97925.00;4925742;28;123836;-63
2023/10/20 05:40:58;;;;;;;;;;;;;;;17.80;62.10;97933.69;4921259;28;121098;-63
2023/10/20 05:43:25;;;;;;;;;;;;;;;17.79;62.39;97938.22;4927830;28;119591;-63
2023/10/20 05:45:52;;;;;;;;;;;;;;;17.79;62.64;97953.44;4922576;28;123218;-63
2023/10/20 05:48:20;;;;;;;;;;;;;;;17.78;62.46;97965.16;4924014;28;124268;-63
2023/10/20 05:50:47;;;;;;;;;;;;;;;17.79;62.43;97969.50;4928713;28;119019;-63
2023/10/20 05:53:14;;;;;;;;;;;;;;;17.79;62.40;97969.50;4918349;28;118878;-63
2023/10/20 05:55:41;;;;;;;;;;;;;;;17.79;62.41;97958.81;4922314;28;124394;-63
2023/10/20 05:58:08;;;;;;;;;;;;;;;17.78;62.90;97954.47;4923918;28;124009;-64
2023/10/20 06:00:36;;;;;;;;;;;;;;;17.77;62.80;97955.50;4926205;28;118657;-64
2023/10/20 06:03:24;;;;;;;;;;;;;;;17.76;62.90;97932.41;4921981;28;119047;-64
2023/10/20 06:05:56;;;;;;;;;;;;;;;17.76;62.80;97938.56;4926563;28;125092;-64
2023/10/20 06:08:23;;;;;;;;;;;;;;;17.77;62.80;97939.44;4942240;28;123033;-64
2023/10/20 06:10:52;;;;;;;;;;;;;;;17.78;62.69;97935.72;4926802;28;119667;-63
2023/10/20 06:13:19;;;;;;;;;;;;;;;17.78;62.57;97933.03;4922999;28;118927;-63
2023/10/20 06:15:46;;;;;;;;;;;;;;;17.79;62.71;97932.03;4921286;28;125095;-63
2023/10/20 06:18:13;;;;;;;;;;;;;;;17.78;62.83;97925.00;4914560;28;122761;-63
2023/10/20 06:20:58;;;;;;;;;;;;;;;17.76;62.87;97924.38;4926391;28;120003;-63
2023/10/20 06:23:26;;;;;;;;;;;;;;;17.75;62.75;97912.00;4923297;28;119557;-63
2023/10/20 06:25:53;;;;;;;;;;;;;;;17.75;62.81;97920.03;4920827;28;123913;-63
2023/10/20 06:28:20;;;;;;;;;;;;;;;17.73;62.97;97938.16;4923933;28;124319;-63
2023/10/20 06:30:48;;;;;;;;;;;;;;;17.71;62.84;97941.81;4921932;28;121278;-63
2023/10/20 06:35:52;;;;;;;;;;;;;;;17.69;63.13;97930.47;4919963;28;124376;-63
2023/10/20 06:38:44;;;;;;;;;;;;;;;17.68;63.21;97915.41;4918591;28;124675;-63
2023/10/20 06:41:13;;;;;;;;;;;;;;;17.65;63.31;97915.81;4920449;28;120225;-63
2023/10/20 06:43:40;;;;;;;;;;;;;;;17.63;63.42;97917.00;4922681;28;117299;-63
2023/10/20 06:46:10;;;;;;;;;;;;;;;17.59;63.59;97916.53;4916545;28;124229;-63
2023/10/20 06:48:40;;;;;;;;;;;;;;;17.54;63.78;97921.63;4932891;28;124373;-63
2023/10/20 06:51:07;;;;;;;;;;;;;;;17.52;63.62;97921.00;4923950;28;119629;-63
2023/10/20 06:53:34;;;;;;;;;;;;;;;17.50;63.50;97923.84;4917737;28;118807;-63
2023/10/20 06:56:05;;;;;;;;;;;;;;;17.49;63.44;97916.00;4937254;28;123781;-63
2023/10/20 06:58:43;;;;;;;;;;;;;;;17.47;63.44;97899.31;4926597;28;124271;-63
2023/10/20 07:01:10;;;;;;;;;;;;;;;17.45;63.72;97906.69;4925575;28;119921;-63
2023/10/20 07:03:38;;;;;;;;;;;;;;;17.42;63.72;97909.72;4925777;28;117693;-63
2023/10/20 07:06:09;;;;;;;;;;;;;;;17.39;63.70;97905.59;4921157;28;124416;-64
2023/10/20 07:08:37;;;;;;;;;;;;;;;17.37;63.83;97901.44;4925881;28;124526;-64
2023/10/20 07:11:04;;;;;;;;;;;;;;;17.34;63.66;97896.47;4940534;28;119575;-63
2023/10/20 07:13:31;;;;;;;;;;;;;;;17.31;63.87;97882.44;4924480;28;118645;-63
2023/10/20 07:16:00;;;;;;;;;;;;;;;17.29;64.07;97905.03;4927606;28;123728;-64
2023/10/20 07:18:27;;;;;;;;;;;;;;;17.26;64.01;97900.88;4924171;28;123744;-63
2023/10/20 07:20:55;;;;;;;;;;;;;;;17.25;64.13;97904.59;4925883;28;119345;-63
2023/10/20 07:23:26;;;;;;;;;;;;;;;17.23;64.07;97901.22;4924978;28;120473;-64
2023/10/20 07:25:53;;;;;;;;;;;;;;;17.22;64.11;97888.91;4939760;28;123114;-64
2023/10/20 07:28:21;;;;;;;;;;;;;;;17.21;64.09;97897.91;4923588;28;123982;-63
2023/10/20 07:30:49;;;;;;;;;;;;;;;17.19;63.97;97896.44;4942936;28;118298;-63
2023/10/20 07:33:16;;;;;;;;;;;;;;;17.16;64.04;97889.63;4926807;28;117775;-63
2023/10/20 07:35:44;;;;;;;;;;;;;;;17.14;63.84;97902.38;4926223;28;124085;-63
2023/10/20 07:38:15;;;;;;;;;;;;;;;17.12;64.15;97899.03;4928348;28;122827;-63
2023/10/20 07:40:42;;;;;;;;;;;;;;;17.10;64.03;97895.69;4927253;28;120369;-63
2023/10/20 07:43:11;;;;;;;;;;;;;;;17.09;63.87;97894.06;4926914;28;119218;-63
2023/10/20 07:45:41;;;;;;;;;;;;;;;17.06;63.88;97899.75;4914336;28;125270;-63
2023/10/20 07:48:10;;;;;;;;;;;;;;;17.04;64.11;97896.44;4928902;28;123938;-63
2023/10/20 07:50:38;;;;;;;;;;;;;;;17.02;64.02;97903.81;4930623;28;118645;-62
2023/10/20 07:53:07;;;;;;;;;;;;;;;17.02;63.96;97887.78;4926781;28;117181;-63
2023/10/20 07:55:34;;;;;;;;;;;;;;;16.99;63.98;97897.00;4930902;28;125273;-63
2023/10/20 07:58:02;;;;;;;;;;;;;;;16.97;63.93;97895.50;4927878;28;124463;-63
2023/10/20 08:00:30;;;;;;;;;;;;;;;16.95;63.77;97886.84;4928324;28;119705;-62
2023/10/20 08:02:57;;;;;;;;;;;;;;;16.91;63.88;97881.88;4929027;28;119374;-62
2023/10/20 08:05:24;;;;;;;;;;;;;;;16.88;64.03;97874.22;4924688;28;125329;-62
2023/10/20 08:07:53;;;;;;;;;;;;;;;16.83;64.05;97879.28;4928410;28;124132;-63
2023/10/20 08:10:21;;;;;;;;;;;;;;;16.80;63.96;97873.41;4917756;28;120534;-63
2023/10/20 08:12:49;;;;;;;;;;;;;;;16.77;64.05;97869.28;4929638;28;119675;-64
2023/10/20 08:15:16;;;;;;;;;;;;;;;16.74;63.98;97856.28;4928004;28;124124;-63
2023/10/20 08:17:46;;;;;;;;;;;;;;;16.71;64.04;97853.97;4940315;28;122894;-63
2023/10/20 08:20:13;;;;;;;;;;;;;;;16.68;64.25;97849.00;4923856;28;119985;-62
2023/10/20 08:22:40;;;;;;;;;;;;;;;16.64;64.28;97858.38;4927743;28;119292;-63
2023/10/20 08:25:08;;;;;;;;;;;;;;;16.60;64.24;97863.25;4929110;28;124761;-63
2023/10/20 08:27:36;;;;;;;;;;;;;;;16.58;64.31;97873.31;4928012;28;123824;-63
2023/10/20 08:30:04;;;;;;;;;;;;;;;16.55;64.29;97874.47;4924289;28;118329;-63
2023/10/20 08:32:32;;;;;;;;;;;;;;;16.53;64.46;97873.00;4929170;28;119267;-63
2023/10/20 08:34:59;;;;;;;;;;;;;;;16.51;64.52;97873.19;4927271;28;125103;-62
2023/10/20 08:37:26;;;;;;;;;;;;;;;16.46;64.40;97867.56;4923220;28;124836;-62
2023/10/20 08:39:54;;;;;;;;;;;;;;;16.44;64.32;97866.06;4928682;28;118517;-63
2023/10/20 08:42:21;;;;;;;;;;;;;;;16.42;64.53;97871.59;4926253;28;118962;-63
2023/10/20 08:44:50;;;;;;;;;;;;;;;16.38;64.44;97864.94;4929580;28;124191;-62
2023/10/20 08:47:17;;;;;;;;;;;;;;;16.34;64.35;97874.34;4928820;28;124968;-63
2023/10/20 08:49:46;;;;;;;;;;;;;;;16.30;64.39;97873.03;4924472;28;120193;-62
2023/10/20 08:52:13;;;;;;;;;;;;;;;16.26;64.43;97877.06;4927238;28;118768;-63
2023/10/20 08:54:41;;;;;;;;;;;;;;;16.24;64.48;97873.75;4924993;28;125257;-62
2023/10/20 08:57:08;;;;;;;;;;;;;;;16.23;64.35;97872.09;4926183;28;124226;-63
2023/10/20 08:59:35;;;;;;;;;;;;;;;16.20;64.30;97872.44;4935382;28;120463;-63
2023/10/20 09:02:04;;;;;;;;;;;;;;;16.18;64.26;97863.75;4926851;28;117743;-63
2023/10/20 09:04:31;;;;;;;;;;;;;;;16.13;64.15;97862.47;4930885;28;124193;-63
2023/10/20 09:07:10;;;;;;;;;;;;;;;16.12;64.34;97871.50;4918936;28;122851;-63
2023/10/20 09:09:37;;;;;;;;;;;;;;;16.08;64.25;97870.16;4918462;28;119487;-63
2023/10/20 09:12:05;;;;;;;;;;;;;;;16.08;64.34;97867.50;4927566;28;119418;-62
2023/10/20 09:14:32;;;;;;;;;;;;;;;16.07;64.41;97868.53;4922810;28;125082;-63
2023/10/20 09:17:02;;;;;;;;;;;;;;;16.06;64.30;97877.53;4942003;28;123554;-62
2023/10/20 09:19:29;;;;;;;;;;;;;;;16.05;64.22;97869.69;4927270;28;119896;-62
2023/10/20 09:21:57;;;;;;;;;;;;;;;16.06;64.02;97872.19;4927062;28;118504;-63
2023/10/20 09:24:31;;;;;;;;;;;;;;;16.05;64.16;97875.03;4919116;28;124626;-63
2023/10/20 09:26:59;;;;;;;;;;;;;;;16.03;63.89;97872.56;4920858;28;124522;-63
2023/10/20 09:29:27;;;;;;;;;;;;;;;15.99;64.00;97857.88;4923734;28;119930;-63
2023/10/20 09:31:54;;;;;;;;;;;;;;;15.99;64.11;97868.56;4939315;28;117624;-63
2023/10/20 09:34:21;;;;;;;;;;;;;;;15.97;63.94;97862.56;4912566;28;123071;-63
2023/10/20 09:36:52;;;;;;;;;;;;;;;15.96;63.95;97850.25;4922699;28;124073;-63
2023/10/20 09:39:32;;;;;;;;;;;;;;;15.96;63.83;97844.91;4913765;28;119466;-63
2023/10/20 09:42:02;;;;;;;;;;;;;;;15.94;64.08;97852.28;4921030;28;118923;-63
2023/10/20 09:44:36;;;;;;;;;;;;;;;15.94;63.97;97853.09;4922673;28;124603;-63
2023/10/20 09:47:19;;;;;;;;;;;;;;;15.95;63.84;97853.91;4924413;28;124848;-62
2023/10/20 09:49:47;;;;;;;;;;;;;;;15.95;64.06;97853.91;4926581;28;120118;-62
2023/10/20 09:52:16;;;;;;;;;;;;;;;15.97;63.96;97865.25;4927135;28;120233;-63
2023/10/20 09:54:44;;;;;;;;;;;;;;;15.98;63.86;97853.56;4931649;28;124444;-63
2023/10/20 09:57:13;;;;;;;;;;;;;;;16.00;63.85;97859.56;4925614;28;124003;-63
2023/10/20 09:59:40;;;;;;;;;;;;;;;15.99;63.90;97855.22;4925081;28;120000;-63
2023/10/20 10:02:07;;;;;;;;;;;;;;;16.01;63.80;97853.22;4930240;28;118642;-63
2023/10/20 10:04:38;;;;;;;;;;;;;;;16.01;63.88;97847.03;4920153;28;126111;-63
2023/10/20 10:07:08;;;;;;;;;;;;;;;16.00;64.01;97846.22;4930044;28;124517;-63
2023/10/20 10:09:40;;;;;;;;;;;;;;;15.99;63.73;97844.53;4926156;28;119298;-64
2023/10/20 10:12:14;;;;;;;;;;;;;;;15.99;63.83;97847.22;4923309;28;118836;-63
2023/10/20 10:14:41;;;;;;;;;;;;;;;15.99;63.88;97849.88;4939648;28;124056;-63
2023/10/20 10:17:09;;;;;;;;;;;;;;;16.01;63.71;97847.88;4925329;28;125159;-63
2023/10/20 10:19:48;;;;;;;;;;;;;;;16.02;63.91;97854.88;4938732;28;118801;-63
2023/10/20 10:22:16;;;;;;;;;;;;;;;16.04;63.84;97858.19;4926478;28;119205;-63
2023/10/20 10:24:51;;;;;;;;;;;;;;;16.06;63.72;97850.84;4912366;28;123280;-63
2023/10/20 10:27:19;;;;;;;;;;;;;;;16.06;63.79;97844.66;4928462;28;124243;-63
2023/10/20 10:32:30;;;;;;;;;;;;;;;16.06;63.48;97840.16;4925514;28;118333;-63
2023/10/20 10:34:58;;;;;;;;;;;;;;;16.06;63.67;97834.00;4921694;28;124453;-63
2023/10/20 10:37:36;;;;;;;;;;;;;;;16.07;63.80;97839.16;4949383;28;124233;-63
2023/10/20 10:40:12;;;;;;;;;;;;;;;16.07;63.67;97841.84;4918889;28;120483;-64
2023/10/20 10:42:43;;;;;;;;;;;;;;;16.09;63.41;97822.97;4926986;28;118999;-64
2023/10/20 10:45:24;;;;;;;;;;;;;;;16.06;63.44;97818.78;4928508;28;124302;-63
2023/10/20 10:48:03;;;;;;;;;;;;;;;16.05;63.56;97817.16;4940290;28;123618;-63
2023/10/20 10:50:30;;;;;;;;;;;;;;;16.06;63.65;97813.47;4927352;28;119789;-63
2023/10/20 10:52:58;;;;;;;;;;;;;;;16.07;63.65;97809.78;4925423;28;118603;-63
2023/10/20 10:55:26;;;;;;;;;;;;;;;16.10;63.48;97809.41;4937114;28;123106;-63
2023/10/20 10:57:53;;;;;;;;;;;;;;;16.11;63.59;97805.75;4923165;28;124261;-63
2023/10/20 11:00:21;;;;;;;;;;;;;;;16.12;63.61;97791.41;4922604;28;120884;-63
2023/10/20 11:02:49;;;;;;;;;;;;;;;16.14;63.59;97789.38;4923935;28;117776;-63
2023/10/20 11:05:17;;;;;;;;;;;;;;;16.17;63.67;97790.03;4921934;28;123967;-63
2023/10/20 11:07:56;;;;;;;;;;;;;;;16.17;63.58;97782.84;4920719;28;123871;-64
2023/10/20 11:10:26;;;;;;;;;;;;;;;16.19;63.41;97785.34;4928314;28;119377;-63
2023/10/20 11:12:55;;;;;;;;;;;;;;;16.20;63.46;97781.63;4931251;28;119320;-64
2023/10/20 11:15:28;;;;;;;;;;;;;;;16.20;63.64;97765.63;4924930;28;124246;-63
2023/10/20 11:17:57;;;;;;;;;;;;;;;16.22;63.58;97755.59;4923882;28;124855;-63
2023/10/20 11:20:25;;;;;;;;;;;;;;;16.22;63.51;97743.09;4923592;28;119966;-63
2023/10/20 11:22:56;;;;;;;;;;;;;;;16.23;63.44;97749.25;4927562;28;117398;-64
2023/10/20 11:25:24;;;;;;;;;;;;;;;16.23;63.45;97738.56;4926634;28;124326;-64
2023/10/20 11:27:55;;;;;;;;;;;;;;;16.25;63.45;97731.19;4929699;28;123947;-63
2023/10/20 11:30:52;;;;;;;;;;;;;;;16.26;63.58;97722.19;4931148;28;120838;-63
2023/10/20 11:33:19;;;;;;;;;;;;;;;16.29;63.41;97732.47;4918165;28;119340;-63
2023/10/20 11:35:46;;;;;;;;;;;;;;;16.32;63.38;97726.78;4919777;28;124863;-64
2023/10/20 11:38:16;;;;;;;;;;;;;;;16.33;63.45;97728.44;4928022;28;124448;-64
2023/10/20 11:40:47;;;;;;;;;;;;;;;16.35;63.72;97715.75;4927219;28;119951;-64
2023/10/20 11:43:15;;;;;;;;;;;;;;;16.38;63.50;97720.72;4923536;28;118440;-63
2023/10/20 11:45:42;;;;;;;;;;;;;;;16.40;63.51;97718.69;4923893;28;125866;-63
2023/10/20 11:48:09;;;;;;;;;;;;;;;16.43;63.35;97717.50;4928363;28;124050;-64
2023/10/20 11:50:36;;;;;;;;;;;;;;;16.43;63.57;97702.31;4928536;28;119609;-63
2023/10/20 11:53:04;;;;;;;;;;;;;;;16.44;63.35;97698.59;4930248;28;118812;-64
2023/10/20 11:55:32;;;;;;;;;;;;;;;16.45;63.32;97710.13;4923524;28;125043;-63
2023/10/20 11:58:00;;;;;;;;;;;;;;;16.44;63.56;97719.97;4928521;28;124983;-63
2023/10/20 12:00:27;;;;;;;;;;;;;;;16.44;63.27;97709.28;4928727;28;119382;-63
2023/10/20 12:02:55;;;;;;;;;;;;;;;16.42;63.21;97700.63;4924629;28;118877;-63
2023/10/20 12:05:22;;;;;;;;;;;;;;;16.40;63.22;97694.66;4930056;28;123172;-64
2023/10/20 12:07:50;;;;;;;;;;;;;;;16.39;63.31;97698.34;4931689;28;124631;-64
2023/10/20 12:10:18;;;;;;;;;;;;;;;16.37;63.33;97703.03;4928132;28;119735;-63
2023/10/20 12:12:45;;;;;;;;;;;;;;;16.35;63.20;97694.38;4935688;28;119248;-63
2023/10/20 12:15:13;;;;;;;;;;;;;;;16.34;63.27;97692.72;4936313;28;124447;-64
2023/10/20 12:17:41;;;;;;;;;;;;;;;16.32;63.23;97694.75;4930195;28;123833;-63
2023/10/20 12:20:09;;;;;;;;;;;;;;;16.30;63.13;97686.09;4928973;28;119603;-63
2023/10/20 12:22:36;;;;;;;;;;;;;;;16.26;63.27;97680.28;4930904;28;119853;-63
2023/10/20 12:25:05;;;;;;;;;;;;;;;16.25;63.23;97688.47;4928437;28;125356;-64
2023/10/20 12:27:32;;;;;;;;;;;;;;;16.21;63.19;97685.34;4928791;28;124723;-63
2023/10/20 12:29:59;;;;;;;;;;;;;;;16.19;63.41;97683.88;4930190;28;119501;-63
2023/10/20 12:32:27;;;;;;;;;;;;;;;16.17;63.13;97675.22;4934081;28;118979;-63
2023/10/20 12:34:56;;;;;;;;;;;;;;;16.15;63.33;97667.38;4934877;28;124588;-63
2023/10/20 12:37:23;;;;;;;;;;;;;;;16.15;63.29;97667.38;4934643;28;124107;-63
2023/10/20 12:39:51;;;;;;;;;;;;;;;16.15;63.33;97662.88;4930010;28;118252;-63
2023/10/20 12:42:18;;;;;;;;;;;;;;;16.15;63.28;97662.88;4925825;28;119746;-63
2023/10/20 12:44:45;;;;;;;;;;;;;;;16.13;63.25;97664.88;4928777;28;124531;-64
2023/10/20 12:47:13;;;;;;;;;;;;;;;16.13;63.23;97664.06;4930766;28;124014;-63
2023/10/20 12:49:40;;;;;;;;;;;;;;;16.13;63.27;97664.88;4929467;28;119687;-63
2023/10/20 12:52:08;;;;;;;;;;;;;;;16.13;63.24;97659.56;4928037;28;119566;-63
2023/10/20 12:54:35;;;;;;;;;;;;;;;16.13;63.17;97664.88;4911217;28;125036;-63
2023/10/20 12:57:03;;;;;;;;;;;;;;;16.12;63.26;97659.72;4941825;28;123201;-63
2023/10/20 12:59:30;;;;;;;;;;;;;;;16.10;63.30;97665.25;4930781;28;119718;-63
2023/10/20 13:01:57;;;;;;;;;;;;;;;16.08;63.16;97669.94;4929248;28;118001;-62
2023/10/20 13:04:27;;;;;;;;;;;;;;;16.07;63.21;97670.97;4927150;28;124732;-63
2023/10/20 13:06:54;;;;;;;;;;;;;;;16.07;63.29;97681.66;4929690;28;124191;-63
2023/10/20 13:09:27;;;;;;;;;;;;;;;16.07;63.19;97676.31;4930036;28;120897;-64
2023/10/20 13:11:57;;;;;;;;;;;;;;;16.06;63.12;97663.97;4924850;28;120191;-63
2023/10/20 13:14:25;;;;;;;;;;;;;;;16.06;63.13;97669.28;4922743;28;125231;-63
2023/10/20 13:16:52;;;;;;;;;;;;;;;16.05;63.23;97673.00;4919609;28;124054;-63